sensor_id;sensor_type;location;lat;lon;timestamp;temperature;humidity
23748;DHT22;12054;53.662;10.126;2023-07-28T00:01:26;17.70;99.90
23748;DHT22;12054;53.662;10.126;2023-07-28T00:03:52;17.70;99.90
23748;DHT22;12054;53.662;10.126;2023-07-28T00:06:17;17.70;99.90
23748;DHT22;12054;53.662;10.126;2023-07-28T00:08:43;17.70;99.90
23748;DHT22;12054;53.662;10.126;2023-07-28T00:11:12;17.70;99.90
23748;DHT22;12054;53.662;10.126;2023-07-28T00:13:38;17.70;99.90
23748;DHT22;12054;53.662;10.126;2023-07-28T00:16:05;17.70;99.90
23748;DHT22;12054;53.662;10.126;2023-07-28T00:18:30;17.70;99.90
23748;DHT22;12054;53.662;10.126;2023-07-28T00:20:56;17.70;99.90
23748;DHT22;12054;53.662;10.126;2023-07-28T00:23:21;17.70;99.90
23748;DHT22;12054;53.662;10.126;2023-07-28T00:25:46;17.70;99.90
23748;DHT22;12054;53.662;10.126;2023-07-28T00:28:12;17.70;99.90
23748;DHT22;12054;53.662;10.126;2023-07-28T00:30:39;17.70;99.90
23748;DHT22;12054;53.662;10.126;2023-07-28T00:33:04;17.60;99.90
23748;DHT22;12054;53.662;10.126;2023-07-28T00:35:30;17.60;99.90
23748;DHT22;12054;53.662;10.126;2023-07-28T00:37:55;17.70;99.90
23748;DHT22;12054;53.662;10.126;2023-07-28T00:40:22;17.60;99.90
23748;DHT22;12054;53.662;10.126;2023-07-28T00:42:48;17.60;99.90
23748;DHT22;12054;53.662;10.126;2023-07-28T00:45:13;17.60;99.90
23748;DHT22;12054;53.662;10.126;2023-07-28T00:47:39;17.60;99.90
23748;DHT22;12054;53.662;10.126;2023-07-28T00:50:06;17.60;99.90
23748;DHT22;12054;53.662;10.126;2023-07-28T00:52:32;17.60;99.90
23748;DHT22;12054;53.662;10.126;2023-07-28T00:54:57;17.60;99.90
23748;DHT22;12054;53.662;10.126;2023-07-28T00:57:23;17.60;99.90
23748;DHT22;12054;53.662;10.126;2023-07-28T00:59:48;17.60;99.90
23748;DHT22;12054;53.662;10.126;2023-07-28T01:02:14;17.60;99.90
23748;DHT22;12054;53.662;10.126;2023-07-28T01:04:40;17.60;99.90
23748;DHT22;12054;53.662;10.126;2023-07-28T01:07:17;17.60;99.90
23748;DHT22;12054;53.662;10.126;2023-07-28T01:10:13;17.60;99.90
23748;DHT22;12054;53.662;10.126;2023-07-28T01:12:40;17.60;99.90
23748;DHT22;12054;53.662;10.126;2023-07-28T01:15:06;17.60;99.90
23748;DHT22;12054;53.662;10.126;2023-07-28T01:17:32;17.60;99.90
23748;DHT22;12054;53.662;10.126;2023-07-28T01:19:57;17.60;99.90
23748;DHT22;12054;53.662;10.126;2023-07-28T01:22:46;17.60;99.90
23748;DHT22;12054;53.662;10.126;2023-07-28T01:28:18;17.60;99.90
23748;DHT22;12054;53.662;10.126;2023-07-28T01:30:44;17.60;99.90
23748;DHT22;12054;53.662;10.126;2023-07-28T01:33:10;17.60;99.90
23748;DHT22;12054;53.662;10.126;2023-07-28T01:35:37;17.60;99.90
23748;DHT22;12054;53.662;10.126;2023-07-28T01:38:05;17.60;99.90
23748;DHT22;12054;53.662;10.126;2023-07-28T01:40:31;17.50;99.90
23748;DHT22;12054;53.662;10.126;2023-07-28T01:42:56;17.50;99.90
23748;DHT22;12054;53.662;10.126;2023-07-28T01:45:22;17.50;99.90
23748;DHT22;12054;53.662;10.126;2023-07-28T01:47:47;17.50;99.90
23748;DHT22;12054;53.662;10.126;2023-07-28T01:50:13;17.50;99.90
23748;DHT22;12054;53.662;10.126;2023-07-28T01:52:38;17.50;99.90
23748;DHT22;12054;53.662;10.126;2023-07-28T01:55:04;17.50;99.90
23748;DHT22;12054;53.662;10.126;2023-07-28T01:57:33;17.60;99.90
23748;DHT22;12054;53.662;10.126;2023-07-28T01:59:59;17.50;99.90
23748;DHT22;12054;53.662;10.126;2023-07-28T02:02:24;17.60;99.90
23748;DHT22;12054;53.662;10.126;2023-07-28T02:04:50;17.50;99.90
23748;DHT22;12054;53.662;10.126;2023-07-28T02:07:15;17.50;99.90
23748;DHT22;12054;53.662;10.126;2023-07-28T02:09:41;17.50;99.90
23748;DHT22;12054;53.662;10.126;2023-07-28T02:12:06;17.50;99.90
23748;DHT22;12054;53.662;10.126;2023-07-28T02:14:32;17.50;99.90
23748;DHT22;12054;53.662;10.126;2023-07-28T02:16:58;17.60;99.90
23748;DHT22;12054;53.662;10.126;2023-07-28T02:19:24;17.60;99.90
23748;DHT22;12054;53.662;10.126;2023-07-28T02:21:50;17.60;99.90
23748;DHT22;12054;53.662;10.126;2023-07-28T02:24:15;17.60;99.90
23748;DHT22;12054;53.662;10.126;2023-07-28T02:26:41;17.60;99.90
23748;DHT22;12054;53.662;10.126;2023-07-28T02:29:06;17.50;99.90
23748;DHT22;12054;53.662;10.126;2023-07-28T02:31:32;17.50;99.90
23748;DHT22;12054;53.662;10.126;2023-07-28T02:33:57;17.50;99.90
23748;DHT22;12054;53.662;10.126;2023-07-28T02:36:23;17.60;99.90
23748;DHT22;12054;53.662;10.126;2023-07-28T02:38:49;17.50;99.90
23748;DHT22;12054;53.662;10.126;2023-07-28T02:41:22;17.50;99.90
23748;DHT22;12054;53.662;10.126;2023-07-28T02:43:48;17.60;99.90
23748;DHT22;12054;53.662;10.126;2023-07-28T02:46:14;17.60;99.90
23748;DHT22;12054;53.662;10.126;2023-07-28T02:48:44;17.50;99.90
23748;DHT22;12054;53.662;10.126;2023-07-28T02:51:10;17.60;99.90
23748;DHT22;12054;53.662;10.126;2023-07-28T02:53:36;17.70;99.90
23748;DHT22;12054;53.662;10.126;2023-07-28T02:56:01;17.50;99.90
23748;DHT22;12054;53.662;10.126;2023-07-28T02:58:27;17.50;99.90
23748;DHT22;12054;53.662;10.126;2023-07-28T03:00:52;17.50;99.90
23748;DHT22;12054;53.662;10.126;2023-07-28T03:03:18;17.50;99.90
23748;DHT22;12054;53.662;10.126;2023-07-28T03:05:43;17.50;99.90
23748;DHT22;12054;53.662;10.126;2023-07-28T03:08:09;17.50;99.90
23748;DHT22;12054;53.662;10.126;2023-07-28T03:10:34;17.50;99.90
23748;DHT22;12054;53.662;10.126;2023-07-28T03:13:00;17.50;99.90
23748;DHT22;12054;53.662;10.126;2023-07-28T03:15:25;17.50;99.90
23748;DHT22;12054;53.662;10.126;2023-07-28T03:17:51;17.50;99.90
23748;DHT22;12054;53.662;10.126;2023-07-28T03:20:36;17.50;99.90
23748;DHT22;12054;53.662;10.126;2023-07-28T03:23:04;17.50;99.90
23748;DHT22;12054;53.662;10.126;2023-07-28T03:25:29;17.40;99.90
23748;DHT22;12054;53.662;10.126;2023-07-28T03:27:55;17.40;99.90
23748;DHT22;12054;53.662;10.126;2023-07-28T03:30:20;17.40;99.90
23748;DHT22;12054;53.662;10.126;2023-07-28T03:32:46;17.40;99.90
23748;DHT22;12054;53.662;10.126;2023-07-28T03:35:11;17.40;99.90
23748;DHT22;12054;53.662;10.126;2023-07-28T03:37:37;17.40;99.90
23748;DHT22;12054;53.662;10.126;2023-07-28T03:40:03;17.40;99.90
23748;DHT22;12054;53.662;10.126;2023-07-28T03:42:29;17.40;99.90
23748;DHT22;12054;53.662;10.126;2023-07-28T03:44:54;17.40;99.90
23748;DHT22;12054;53.662;10.126;2023-07-28T03:47:20;17.40;99.90
23748;DHT22;12054;53.662;10.126;2023-07-28T03:49:45;17.40;99.90
23748;DHT22;12054;53.662;10.126;2023-07-28T03:52:11;17.40;99.90
23748;DHT22;12054;53.662;10.126;2023-07-28T03:54:36;17.40;99.90
23748;DHT22;12054;53.662;10.126;2023-07-28T03:57:02;17.40;99.90
23748;DHT22;12054;53.662;10.126;2023-07-28T03:59:27;17.30;99.90
23748;DHT22;12054;53.662;10.126;2023-07-28T04:01:53;17.30;99.90
23748;DHT22;12054;53.662;10.126;2023-07-28T04:04:18;17.30;99.90
23748;DHT22;12054;53.662;10.126;2023-07-28T04:06:46;17.40;99.90
23748;DHT22;12054;53.662;10.126;2023-07-28T04:09:14;17.30;99.90
23748;DHT22;12054;53.662;10.126;2023-07-28T04:11:39;17.40;99.90
23748;DHT22;12054;53.662;10.126;2023-07-28T04:14:05;17.40;99.90
23748;DHT22;12054;53.662;10.126;2023-07-28T04:16:31;17.40;99.90
23748;DHT22;12054;53.662;10.126;2023-07-28T04:18:57;17.30;99.90
23748;DHT22;12054;53.662;10.126;2023-07-28T04:21:23;17.40;99.90
23748;DHT22;12054;53.662;10.126;2023-07-28T04:23:48;17.40;99.90
23748;DHT22;12054;53.662;10.126;2023-07-28T04:26:14;17.40;99.90
23748;DHT22;12054;53.662;10.126;2023-07-28T04:28:39;17.40;99.90
23748;DHT22;12054;53.662;10.126;2023-07-28T04:31:05;17.40;99.90
23748;DHT22;12054;53.662;10.126;2023-07-28T04:33:30;17.40;99.90
23748;DHT22;12054;53.662;10.126;2023-07-28T04:35:56;17.40;99.90
23748;DHT22;12054;53.662;10.126;2023-07-28T04:38:21;17.40;99.90
23748;DHT22;12054;53.662;10.126;2023-07-28T04:40:48;17.40;99.90
23748;DHT22;12054;53.662;10.126;2023-07-28T04:43:14;17.40;99.90
23748;DHT22;12054;53.662;10.126;2023-07-28T04:45:39;17.40;99.90
23748;DHT22;12054;53.662;10.126;2023-07-28T04:48:05;17.40;99.90
23748;DHT22;12054;53.662;10.126;2023-07-28T04:50:30;17.40;99.90
23748;DHT22;12054;53.662;10.126;2023-07-28T04:52:57;17.40;99.90
23748;DHT22;12054;53.662;10.126;2023-07-28T04:55:23;17.40;99.90
23748;DHT22;12054;53.662;10.126;2023-07-28T04:57:48;17.40;99.90
23748;DHT22;12054;53.662;10.126;2023-07-28T05:00:14;17.40;99.90
23748;DHT22;12054;53.662;10.126;2023-07-28T05:02:40;17.40;99.90
23748;DHT22;12054;53.662;10.126;2023-07-28T05:05:05;17.40;99.90
23748;DHT22;12054;53.662;10.126;2023-07-28T05:07:31;17.40;99.90
23748;DHT22;12054;53.662;10.126;2023-07-28T05:09:56;17.50;99.90
23748;DHT22;12054;53.662;10.126;2023-07-28T05:12:22;17.50;99.90
23748;DHT22;12054;53.662;10.126;2023-07-28T05:14:47;17.50;99.90
23748;DHT22;12054;53.662;10.126;2023-07-28T05:17:13;17.50;99.90
23748;DHT22;12054;53.662;10.126;2023-07-28T05:19:38;17.50;99.90
23748;DHT22;12054;53.662;10.126;2023-07-28T05:22:04;17.50;99.90
23748;DHT22;12054;53.662;10.126;2023-07-28T05:24:32;17.50;99.90
23748;DHT22;12054;53.662;10.126;2023-07-28T05:26:58;17.50;99.90
23748;DHT22;12054;53.662;10.126;2023-07-28T05:29:23;17.50;99.90
23748;DHT22;12054;53.662;10.126;2023-07-28T05:31:49;17.50;99.90
23748;DHT22;12054;53.662;10.126;2023-07-28T05:34:14;17.50;99.90
23748;DHT22;12054;53.662;10.126;2023-07-28T05:36:40;17.50;99.90
23748;DHT22;12054;53.662;10.126;2023-07-28T05:39:05;17.50;99.90
23748;DHT22;12054;53.662;10.126;2023-07-28T05:41:31;17.50;99.90
23748;DHT22;12054;53.662;10.126;2023-07-28T05:43:56;17.60;99.90
23748;DHT22;12054;53.662;10.126;2023-07-28T05:46:22;17.60;99.90
23748;DHT22;12054;53.662;10.126;2023-07-28T05:48:47;17.50;99.90
23748;DHT22;12054;53.662;10.126;2023-07-28T05:51:13;17.60;99.90
23748;DHT22;12054;53.662;10.126;2023-07-28T05:53:38;17.60;99.90
23748;DHT22;12054;53.662;10.126;2023-07-28T05:56:04;17.60;99.90
23748;DHT22;12054;53.662;10.126;2023-07-28T05:58:29;17.60;99.90
23748;DHT22;12054;53.662;10.126;2023-07-28T06:00:56;17.70;99.90
23748;DHT22;12054;53.662;10.126;2023-07-28T06:03:21;17.60;99.90
23748;DHT22;12054;53.662;10.126;2023-07-28T06:05:47;17.70;99.90
23748;DHT22;12054;53.662;10.126;2023-07-28T06:08:13;17.70;99.90
23748;DHT22;12054;53.662;10.126;2023-07-28T06:10:39;17.70;99.90
23748;DHT22;12054;53.662;10.126;2023-07-28T06:13:04;17.70;99.90
23748;DHT22;12054;53.662;10.126;2023-07-28T06:15:30;17.70;99.90
23748;DHT22;12054;53.662;10.126;2023-07-28T06:17:56;17.70;99.90
23748;DHT22;12054;53.662;10.126;2023-07-28T06:20:21;17.70;99.90
23748;DHT22;12054;53.662;10.126;2023-07-28T06:22:47;17.70;99.90
23748;DHT22;12054;53.662;10.126;2023-07-28T06:25:12;17.80;99.90
23748;DHT22;12054;53.662;10.126;2023-07-28T06:27:38;17.80;99.90
23748;DHT22;12054;53.662;10.126;2023-07-28T06:30:04;17.80;99.90
23748;DHT22;12054;53.662;10.126;2023-07-28T06:32:30;17.80;99.90
23748;DHT22;12054;53.662;10.126;2023-07-28T06:34:56;17.80;99.90
23748;DHT22;12054;53.662;10.126;2023-07-28T06:37:22;17.80;99.90
23748;DHT22;12054;53.662;10.126;2023-07-28T06:39:48;17.90;99.90
23748;DHT22;12054;53.662;10.126;2023-07-28T06:42:14;17.90;99.90
23748;DHT22;12054;53.662;10.126;2023-07-28T06:44:42;17.90;99.90
23748;DHT22;12054;53.662;10.126;2023-07-28T06:47:07;17.90;99.90
23748;DHT22;12054;53.662;10.126;2023-07-28T06:49:33;18.00;99.90
23748;DHT22;12054;53.662;10.126;2023-07-28T06:51:58;17.90;99.90
23748;DHT22;12054;53.662;10.126;2023-07-28T06:54:24;18.00;99.90
23748;DHT22;12054;53.662;10.126;2023-07-28T06:56:50;18.00;99.90
23748;DHT22;12054;53.662;10.126;2023-07-28T06:59:15;18.00;99.90
23748;DHT22;12054;53.662;10.126;2023-07-28T07:01:41;18.00;99.90
23748;DHT22;12054;53.662;10.126;2023-07-28T07:04:06;18.00;99.90
23748;DHT22;12054;53.662;10.126;2023-07-28T07:06:32;18.10;99.90
23748;DHT22;12054;53.662;10.126;2023-07-28T07:08:57;18.10;99.90
23748;DHT22;12054;53.662;10.126;2023-07-28T07:11:23;18.10;99.90
23748;DHT22;12054;53.662;10.126;2023-07-28T07:13:48;18.10;99.90
23748;DHT22;12054;53.662;10.126;2023-07-28T07:16:18;18.20;99.90
23748;DHT22;12054;53.662;10.126;2023-07-28T07:18:43;18.30;99.90
23748;DHT22;12054;53.662;10.126;2023-07-28T07:21:09;18.30;99.90
23748;DHT22;12054;53.662;10.126;2023-07-28T07:23:35;18.40;99.90
23748;DHT22;12054;53.662;10.126;2023-07-28T07:26:01;18.40;99.90
23748;DHT22;12054;53.662;10.126;2023-07-28T07:28:27;18.40;99.90
23748;DHT22;12054;53.662;10.126;2023-07-28T07:30:54;18.50;99.90
23748;DHT22;12054;53.662;10.126;2023-07-28T07:33:20;18.60;99.90
23748;DHT22;12054;53.662;10.126;2023-07-28T07:35:46;18.60;99.90
23748;DHT22;12054;53.662;10.126;2023-07-28T07:38:12;18.60;99.90
23748;DHT22;12054;53.662;10.126;2023-07-28T07:40:38;18.70;99.90
23748;DHT22;12054;53.662;10.126;2023-07-28T07:43:03;18.70;99.90
23748;DHT22;12054;53.662;10.126;2023-07-28T07:45:30;18.80;99.90
23748;DHT22;12054;53.662;10.126;2023-07-28T07:47:55;18.80;99.90
23748;DHT22;12054;53.662;10.126;2023-07-28T07:50:21;18.80;99.90
23748;DHT22;12054;53.662;10.126;2023-07-28T07:52:47;18.80;99.90
23748;DHT22;12054;53.662;10.126;2023-07-28T07:55:13;18.80;99.90
23748;DHT22;12054;53.662;10.126;2023-07-28T07:57:39;18.90;99.90
23748;DHT22;12054;53.662;10.126;2023-07-28T08:00:05;18.90;99.90
23748;DHT22;12054;53.662;10.126;2023-07-28T08:02:31;18.90;99.90
23748;DHT22;12054;53.662;10.126;2023-07-28T08:04:56;19.00;99.90
23748;DHT22;12054;53.662;10.126;2023-07-28T08:07:22;19.00;99.90
23748;DHT22;12054;53.662;10.126;2023-07-28T08:09:49;19.00;99.90
23748;DHT22;12054;53.662;10.126;2023-07-28T08:12:15;19.10;99.90
23748;DHT22;12054;53.662;10.126;2023-07-28T08:14:40;19.10;99.90
23748;DHT22;12054;53.662;10.126;2023-07-28T08:17:07;19.10;99.90
23748;DHT22;12054;53.662;10.126;2023-07-28T08:19:35;19.20;99.90
23748;DHT22;12054;53.662;10.126;2023-07-28T08:22:03;19.20;99.90
23748;DHT22;12054;53.662;10.126;2023-07-28T08:24:29;19.30;99.90
23748;DHT22;12054;53.662;10.126;2023-07-28T08:26:55;19.30;99.90
23748;DHT22;12054;53.662;10.126;2023-07-28T08:29:20;19.30;99.90
23748;DHT22;12054;53.662;10.126;2023-07-28T08:31:46;19.40;99.90
23748;DHT22;12054;53.662;10.126;2023-07-28T08:34:12;19.40;99.90
23748;DHT22;12054;53.662;10.126;2023-07-28T08:36:38;19.40;99.90
23748;DHT22;12054;53.662;10.126;2023-07-28T08:39:05;19.50;99.90
23748;DHT22;12054;53.662;10.126;2023-07-28T08:41:30;19.50;99.90
23748;DHT22;12054;53.662;10.126;2023-07-28T08:43:56;19.60;99.90
23748;DHT22;12054;53.662;10.126;2023-07-28T08:46:22;19.70;99.90
23748;DHT22;12054;53.662;10.126;2023-07-28T08:48:49;19.70;99.90
23748;DHT22;12054;53.662;10.126;2023-07-28T08:51:15;19.80;99.90
23748;DHT22;12054;53.662;10.126;2023-07-28T08:53:40;19.90;99.90
23748;DHT22;12054;53.662;10.126;2023-07-28T08:56:06;19.90;99.90
23748;DHT22;12054;53.662;10.126;2023-07-28T08:58:32;19.90;99.90
23748;DHT22;12054;53.662;10.126;2023-07-28T09:00:58;20.00;99.90
23748;DHT22;12054;53.662;10.126;2023-07-28T09:03:26;20.00;99.90
23748;DHT22;12054;53.662;10.126;2023-07-28T09:06:01;20.00;99.90
23748;DHT22;12054;53.662;10.126;2023-07-28T09:08:28;20.00;99.90
23748;DHT22;12054;53.662;10.126;2023-07-28T09:10:55;20.10;99.90
23748;DHT22;12054;53.662;10.126;2023-07-28T09:13:21;20.10;99.90
23748;DHT22;12054;53.662;10.126;2023-07-28T09:15:47;20.10;99.90
23748;DHT22;12054;53.662;10.126;2023-07-28T09:18:16;20.10;99.90
23748;DHT22;12054;53.662;10.126;2023-07-28T09:20:46;20.10;99.90
23748;DHT22;12054;53.662;10.126;2023-07-28T09:23:14;20.10;99.90
23748;DHT22;12054;53.662;10.126;2023-07-28T09:25:40;20.20;99.90
23748;DHT22;12054;53.662;10.126;2023-07-28T09:28:05;20.20;99.90
23748;DHT22;12054;53.662;10.126;2023-07-28T09:30:46;20.20;99.90
23748;DHT22;12054;53.662;10.126;2023-07-28T09:33:12;20.30;99.90
23748;DHT22;12054;53.662;10.126;2023-07-28T09:35:48;20.30;99.90
23748;DHT22;12054;53.662;10.126;2023-07-28T09:38:14;20.30;99.90
23748;DHT22;12054;53.662;10.126;2023-07-28T09:40:41;20.40;99.90
23748;DHT22;12054;53.662;10.126;2023-07-28T09:43:07;20.40;99.90
23748;DHT22;12054;53.662;10.126;2023-07-28T09:45:34;20.40;99.90
23748;DHT22;12054;53.662;10.126;2023-07-28T09:48:02;20.50;99.90
23748;DHT22;12054;53.662;10.126;2023-07-28T09:50:32;20.50;99.90
23748;DHT22;12054;53.662;10.126;2023-07-28T09:53:02;20.50;99.90
23748;DHT22;12054;53.662;10.126;2023-07-28T09:55:29;20.50;99.90
23748;DHT22;12054;53.662;10.126;2023-07-28T09:57:55;20.50;99.90
23748;DHT22;12054;53.662;10.126;2023-07-28T10:00:23;20.60;99.90
23748;DHT22;12054;53.662;10.126;2023-07-28T10:02:49;20.70;99.90
23748;DHT22;12054;53.662;10.126;2023-07-28T10:05:18;20.70;99.90
23748;DHT22;12054;53.662;10.126;2023-07-28T10:07:45;20.80;99.90
23748;DHT22;12054;53.662;10.126;2023-07-28T10:10:13;20.90;99.90
23748;DHT22;12054;53.662;10.126;2023-07-28T10:12:50;20.90;99.90
23748;DHT22;12054;53.662;10.126;2023-07-28T10:15:18;21.00;99.90
23748;DHT22;12054;53.662;10.126;2023-07-28T10:17:46;21.00;99.90
23748;DHT22;12054;53.662;10.126;2023-07-28T10:20:28;21.10;99.90
23748;DHT22;12054;53.662;10.126;2023-07-28T10:22:54;21.10;99.90
23748;DHT22;12054;53.662;10.126;2023-07-28T10:25:26;21.20;99.90
23748;DHT22;12054;53.662;10.126;2023-07-28T10:27:53;21.20;99.90
23748;DHT22;12054;53.662;10.126;2023-07-28T10:30:19;21.30;99.90
23748;DHT22;12054;53.662;10.126;2023-07-28T10:32:48;21.30;99.90
23748;DHT22;12054;53.662;10.126;2023-07-28T10:37:47;21.40;99.90
23748;DHT22;12054;53.662;10.126;2023-07-28T10:40:33;21.40;99.90
23748;DHT22;12054;53.662;10.126;2023-07-28T10:43:05;21.40;99.90
23748;DHT22;12054;53.662;10.126;2023-07-28T10:45:31;21.40;99.90
23748;DHT22;12054;53.662;10.126;2023-07-28T10:47:58;21.50;99.90
23748;DHT22;12054;53.662;10.126;2023-07-28T10:50:29;21.50;99.90
23748;DHT22;12054;53.662;10.126;2023-07-28T10:52:55;21.60;99.90
23748;DHT22;12054;53.662;10.126;2023-07-28T10:55:26;21.60;99.90
23748;DHT22;12054;53.662;10.126;2023-07-28T10:57:53;21.60;99.90
23748;DHT22;12054;53.662;10.126;2023-07-28T11:00:21;21.60;99.90
23748;DHT22;12054;53.662;10.126;2023-07-28T11:02:51;21.70;99.90
23748;DHT22;12054;53.662;10.126;2023-07-28T11:05:23;21.70;99.90
23748;DHT22;12054;53.662;10.126;2023-07-28T11:07:50;21.70;99.90
23748;DHT22;12054;53.662;10.126;2023-07-28T11:10:16;21.70;99.90
23748;DHT22;12054;53.662;10.126;2023-07-28T11:12:43;21.70;99.90
23748;DHT22;12054;53.662;10.126;2023-07-28T11:15:11;21.80;99.90
23748;DHT22;12054;53.662;10.126;2023-07-28T11:17:42;21.70;99.90
23748;DHT22;12054;53.662;10.126;2023-07-28T11:20:19;21.80;99.90
23748;DHT22;12054;53.662;10.126;2023-07-28T11:22:46;21.80;99.90
23748;DHT22;12054;53.662;10.126;2023-07-28T11:25:12;21.80;99.90
23748;DHT22;12054;53.662;10.126;2023-07-28T11:27:39;21.90;99.90
23748;DHT22;12054;53.662;10.126;2023-07-28T11:30:08;21.90;99.90
23748;DHT22;12054;53.662;10.126;2023-07-28T11:32:36;21.90;99.90
23748;DHT22;12054;53.662;10.126;2023-07-28T11:35:05;22.00;99.90
23748;DHT22;12054;53.662;10.126;2023-07-28T11:37:33;22.10;99.90
23748;DHT22;12054;53.662;10.126;2023-07-28T11:40:00;22.10;99.90
23748;DHT22;12054;53.662;10.126;2023-07-28T11:42:27;22.20;99.90
23748;DHT22;12054;53.662;10.126;2023-07-28T11:44:53;22.20;99.90
23748;DHT22;12054;53.662;10.126;2023-07-28T11:47:19;22.20;99.90
23748;DHT22;12054;53.662;10.126;2023-07-28T11:49:48;22.30;99.90
23748;DHT22;12054;53.662;10.126;2023-07-28T11:52:14;22.30;99.90
23748;DHT22;12054;53.662;10.126;2023-07-28T11:54:40;22.30;99.90
23748;DHT22;12054;53.662;10.126;2023-07-28T11:57:07;22.30;99.90
23748;DHT22;12054;53.662;10.126;2023-07-28T11:59:34;22.40;99.90
23748;DHT22;12054;53.662;10.126;2023-07-28T12:02:02;22.40;99.90
23748;DHT22;12054;53.662;10.126;2023-07-28T12:04:34;22.50;99.90
23748;DHT22;12054;53.662;10.126;2023-07-28T12:07:11;22.50;99.90
23748;DHT22;12054;53.662;10.126;2023-07-28T12:12:15;22.50;99.90
23748;DHT22;12054;53.662;10.126;2023-07-28T12:14:41;22.50;99.90
23748;DHT22;12054;53.662;10.126;2023-07-28T12:17:14;22.50;99.90
23748;DHT22;12054;53.662;10.126;2023-07-28T12:19:55;22.60;99.90
23748;DHT22;12054;53.662;10.126;2023-07-28T12:22:21;22.60;99.90
23748;DHT22;12054;53.662;10.126;2023-07-28T12:24:46;22.60;99.90
23748;DHT22;12054;53.662;10.126;2023-07-28T12:27:12;22.60;99.90
23748;DHT22;12054;53.662;10.126;2023-07-28T12:29:39;22.80;99.90
23748;DHT22;12054;53.662;10.126;2023-07-28T12:32:06;22.70;99.90
23748;DHT22;12054;53.662;10.126;2023-07-28T12:34:33;22.80;99.90
23748;DHT22;12054;53.662;10.126;2023-07-28T12:36:59;22.80;99.90
23748;DHT22;12054;53.662;10.126;2023-07-28T12:39:24;22.80;99.90
23748;DHT22;12054;53.662;10.126;2023-07-28T12:41:53;22.90;99.90
23748;DHT22;12054;53.662;10.126;2023-07-28T12:44:22;23.00;99.90
23748;DHT22;12054;53.662;10.126;2023-07-28T12:46:48;22.90;99.90
23748;DHT22;12054;53.662;10.126;2023-07-28T12:49:13;23.00;99.90
23748;DHT22;12054;53.662;10.126;2023-07-28T12:51:40;23.00;99.90
23748;DHT22;12054;53.662;10.126;2023-07-28T12:54:05;23.10;99.90
23748;DHT22;12054;53.662;10.126;2023-07-28T12:56:32;23.10;99.90
23748;DHT22;12054;53.662;10.126;2023-07-28T12:58:58;23.10;99.90
23748;DHT22;12054;53.662;10.126;2023-07-28T13:01:24;23.20;99.90
23748;DHT22;12054;53.662;10.126;2023-07-28T13:03:49;23.30;99.90
23748;DHT22;12054;53.662;10.126;2023-07-28T13:06:15;23.30;99.90
23748;DHT22;12054;53.662;10.126;2023-07-28T13:08:43;23.40;99.90
23748;DHT22;12054;53.662;10.126;2023-07-28T13:11:10;23.30;99.90
23748;DHT22;12054;53.662;10.126;2023-07-28T13:13:35;23.40;99.90
23748;DHT22;12054;53.662;10.126;2023-07-28T13:16:01;23.60;99.90
23748;DHT22;12054;53.662;10.126;2023-07-28T13:18:26;23.50;99.90
23748;DHT22;12054;53.662;10.126;2023-07-28T13:20:52;23.50;99.90
23748;DHT22;12054;53.662;10.126;2023-07-28T13:23:17;23.50;99.90
23748;DHT22;12054;53.662;10.126;2023-07-28T13:25:43;23.50;99.90
23748;DHT22;12054;53.662;10.126;2023-07-28T13:28:08;23.50;99.90
23748;DHT22;12054;53.662;10.126;2023-07-28T13:30:34;23.50;99.90
23748;DHT22;12054;53.662;10.126;2023-07-28T13:32:59;23.50;99.90
23748;DHT22;12054;53.662;10.126;2023-07-28T13:35:27;23.50;99.90
23748;DHT22;12054;53.662;10.126;2023-07-28T13:37:52;23.50;99.90
23748;DHT22;12054;53.662;10.126;2023-07-28T13:40:18;23.50;99.90
23748;DHT22;12054;53.662;10.126;2023-07-28T13:42:43;23.50;99.90
23748;DHT22;12054;53.662;10.126;2023-07-28T13:45:09;23.50;99.90
23748;DHT22;12054;53.662;10.126;2023-07-28T13:47:37;23.50;99.90
23748;DHT22;12054;53.662;10.126;2023-07-28T13:50:02;23.50;99.90
23748;DHT22;12054;53.662;10.126;2023-07-28T13:52:28;23.50;99.90
23748;DHT22;12054;53.662;10.126;2023-07-28T13:54:54;23.60;99.90
23748;DHT22;12054;53.662;10.126;2023-07-28T13:57:19;23.60;99.90
23748;DHT22;12054;53.662;10.126;2023-07-28T13:59:45;23.70;99.90
23748;DHT22;12054;53.662;10.126;2023-07-28T14:02:10;23.60;99.90
23748;DHT22;12054;53.662;10.126;2023-07-28T14:04:36;23.70;99.90
23748;DHT22;12054;53.662;10.126;2023-07-28T14:07:01;23.70;99.90
23748;DHT22;12054;53.662;10.126;2023-07-28T14:09:27;23.70;99.90
23748;DHT22;12054;53.662;10.126;2023-07-28T14:11:52;23.70;99.90
23748;DHT22;12054;53.662;10.126;2023-07-28T14:14:18;23.80;99.90
23748;DHT22;12054;53.662;10.126;2023-07-28T14:16:43;23.80;99.90
23748;DHT22;12054;53.662;10.126;2023-07-28T14:19:09;23.80;99.90
23748;DHT22;12054;53.662;10.126;2023-07-28T14:21:34;23.80;99.90
23748;DHT22;12054;53.662;10.126;2023-07-28T14:24:04;23.80;99.90
23748;DHT22;12054;53.662;10.126;2023-07-28T14:26:30;23.80;99.90
23748;DHT22;12054;53.662;10.126;2023-07-28T14:28:55;23.80;99.90
23748;DHT22;12054;53.662;10.126;2023-07-28T14:31:22;23.80;99.90
23748;DHT22;12054;53.662;10.126;2023-07-28T14:33:47;23.80;99.90
23748;DHT22;12054;53.662;10.126;2023-07-28T14:36:13;23.90;99.90
23748;DHT22;12054;53.662;10.126;2023-07-28T14:38:39;23.90;99.90
23748;DHT22;12054;53.662;10.126;2023-07-28T14:41:04;23.90;99.90
23748;DHT22;12054;53.662;10.126;2023-07-28T14:43:30;23.90;99.90
23748;DHT22;12054;53.662;10.126;2023-07-28T14:45:55;23.90;99.90
23748;DHT22;12054;53.662;10.126;2023-07-28T14:48:21;23.90;99.90
23748;DHT22;12054;53.662;10.126;2023-07-28T14:50:47;23.90;99.90
23748;DHT22;12054;53.662;10.126;2023-07-28T14:53:48;23.90;99.90
23748;DHT22;12054;53.662;10.126;2023-07-28T14:56:15;24.00;99.90
23748;DHT22;12054;53.662;10.126;2023-07-28T14:58:42;24.00;99.90
23748;DHT22;12054;53.662;10.126;2023-07-28T15:01:09;24.00;99.90
23748;DHT22;12054;53.662;10.126;2023-07-28T15:03:36;24.00;99.90
23748;DHT22;12054;53.662;10.126;2023-07-28T15:06:02;24.00;99.90
23748;DHT22;12054;53.662;10.126;2023-07-28T15:08:28;24.10;99.90
23748;DHT22;12054;53.662;10.126;2023-07-28T15:10:53;24.10;99.90
23748;DHT22;12054;53.662;10.126;2023-07-28T15:13:20;24.10;99.90
23748;DHT22;12054;53.662;10.126;2023-07-28T15:15:46;24.00;99.90
23748;DHT22;12054;53.662;10.126;2023-07-28T15:18:12;24.10;99.90
23748;DHT22;12054;53.662;10.126;2023-07-28T15:20:39;24.20;99.90